Time,TemperatureF,DewpointF,PressureIn,WindDirection,WindDirectionDegrees,WindSpeedMPH,WindSpeedGustMPH,Humidity,HourlyPrecipIn,Conditions,Clouds,dailyrainin,SoftwareType,DateUTC
2013-02-16 00:01:00,36.0,36.0,29.99,North,0,0.0,-999.0,100,0.00,,,-99.99,,2013-02-16 05:01:00,
2013-02-16 00:11:00,36.0,36.0,29.98,North,0,0.0,-999.0,100,0.00,,,-99.99,,2013-02-16 05:11:00,
2013-02-16 00:21:00,37.0,37.0,29.98,North,0,0.0,-999.0,100,0.00,,,-99.99,,2013-02-16 05:21:00,
2013-02-16 00:31:00,37.0,37.0,29.98,North,0,0.0,-999.0,100,0.00,,,-99.99,,2013-02-16 05:31:00,
2013-02-16 00:42:00,37.0,37.0,29.98,North,0,0.0,-999.0,100,0.00,,,-99.99,,2013-02-16 05:42:00,
2013-02-16 00:52:00,36.0,36.0,29.97,North,0,0.0,-999.0,100,0.00,,,-99.99,,2013-02-16 05:52:00,
2013-02-16 01:01:00,36.0,36.0,29.97,North,0,0.0,-999.0,100,0.00,,,-99.99,,2013-02-16 06:01:00,
2013-02-16 01:11:00,37.0,37.0,29.97,North,0,0.0,-999.0,100,0.00,,,-99.99,,2013-02-16 06:11:00,
2013-02-16 01:21:00,37.0,37.0,29.97,North,0,0.0,-999.0,100,0.00,,,-99.99,,2013-02-16 06:21:00,
2013-02-16 01:31:00,36.0,36.0,29.96,North,0,0.0,-999.0,100,0.00,,,-99.99,,2013-02-16 06:31:00,
2013-02-16 01:41:00,36.0,36.0,29.96,North,0,0.0,-999.0,100,0.00,,,-99.99,,2013-02-16 06:41:00,
2013-02-16 01:51:00,36.0,36.0,29.96,North,0,0.0,-999.0,100,0.00,,,-99.99,,2013-02-16 06:51:00,
2013-02-16 02:01:00,36.0,36.0,29.96,North,0,0.0,-999.0,100,0.00,,,-99.99,,2013-02-16 07:01:00,
2013-02-16 02:11:00,37.0,37.0,29.96,WSW,250,3.0,-999.0,100,0.00,,,-99.99,,2013-02-16 07:11:00,
2013-02-16 02:21:00,37.0,37.0,29.96,WSW,250,3.0,-999.0,100,0.00,,,-99.99,,2013-02-16 07:21:00,
2013-02-16 02:31:00,37.0,37.0,29.96,North,0,0.0,-999.0,100,0.00,,,-99.99,,2013-02-16 07:31:00,
2013-02-16 02:41:00,37.0,37.0,29.96,North,0,0.0,-999.0,100,0.00,,,-99.99,,2013-02-16 07:41:00,
2013-02-16 02:52:00,39.0,39.0,29.95,North,0,0.0,-999.0,100,0.00,,,-99.99,,2013-02-16 07:52:00,
2013-02-16 03:01:00,39.0,39.0,29.95,North,0,0.0,-999.0,100,0.00,,,-99.99,,2013-02-16 08:01:00,
2013-02-16 03:11:00,37.0,37.0,29.95,North,0,0.0,-999.0,100,0.00,,,-99.99,,2013-02-16 08:11:00,
2013-02-16 03:21:00,37.0,37.0,29.94,North,0,0.0,-999.0,100,0.00,,,-99.99,,2013-02-16 08:21:00,
2013-02-16 03:31:00,39.0,39.0,29.94,North,0,0.0,-999.0,100,0.00,,,-99.99,,2013-02-16 08:31:00,
2013-02-16 03:41:00,39.0,39.0,29.93,WSW,250,5.0,-999.0,100,0.00,,,-99.99,,2013-02-16 08:41:00,
2013-02-16 03:51:00,41.0,41.0,29.93,WSW,250,3.0,-999.0,100,0.00,,,-99.99,,2013-02-16 08:51:00,
2013-02-16 04:01:00,41.0,41.0,29.93,WSW,250,3.0,-999.0,100,0.00,,,-99.99,,2013-02-16 09:01:00,
2013-02-16 04:11:00,39.0,39.0,29.92,WSW,240,3.0,-999.0,100,0.00,,,-99.99,,2013-02-16 09:11:00,
2013-02-16 04:21:00,37.0,37.0,29.91,North,0,0.0,-999.0,100,0.00,,,-99.99,,2013-02-16 09:21:00,
2013-02-16 04:31:00,37.0,37.0,29.91,WSW,240,3.0,-999.0,100,0.00,,,-99.99,,2013-02-16 09:31:00,
2013-02-16 04:42:00,37.0,37.0,29.90,WSW,240,3.0,-999.0,100,0.00,,,-99.99,,2013-02-16 09:42:00,
2013-02-16 04:51:00,37.0,37.0,29.90,North,0,0.0,-999.0,100,0.00,,,-99.99,,2013-02-16 09:51:00,
2013-02-16 05:01:00,37.0,37.0,29.90,North,0,0.0,-999.0,100,0.00,,,-99.99,,2013-02-16 10:01:00,
2013-02-16 05:11:00,37.0,37.0,29.90,WNW,300,5.0,-999.0,100,0.00,,,-99.99,,2013-02-16 10:11:00,
2013-02-16 05:21:00,41.0,41.0,29.91,WNW,290,5.0,-999.0,100,0.00,,,-99.99,,2013-02-16 10:21:00,
2013-02-16 05:31:00,43.0,43.0,29.91,WNW,300,6.0,-999.0,100,0.00,,,-99.99,,2013-02-16 10:31:00,
2013-02-16 05:41:00,41.0,41.0,29.91,WNW,300,7.0,-999.0,100,0.00,,,-99.99,,2013-02-16 10:41:00,
2013-02-16 05:51:00,41.0,41.0,29.90,WNW,300,6.0,-999.0,100,0.00,,,-99.99,,2013-02-16 10:51:00,
2013-02-16 06:01:00,41.0,41.0,29.90,WNW,300,6.0,-999.0,100,0.00,,,-99.99,,2013-02-16 11:01:00,
2013-02-16 06:11:00,41.0,41.0,29.90,WNW,290,5.0,-999.0,100,0.00,,,-99.99,,2013-02-16 11:11:00,
2013-02-16 06:22:00,39.0,39.0,29.90,West,280,3.0,-999.0,100,0.00,,,-99.99,,2013-02-16 11:22:00,
2013-02-16 06:31:00,39.0,39.0,29.90,North,0,0.0,-999.0,100,0.00,,,-99.99,,2013-02-16 11:31:00,
2013-02-16 06:42:00,39.0,39.0,29.90,North,0,0.0,-999.0,100,0.00,,,-99.99,,2013-02-16 11:42:00,
2013-02-16 06:52:00,37.0,37.0,29.90,North,0,0.0,-999.0,100,0.00,,,-99.99,,2013-02-16 11:52:00,
2013-02-16 07:01:00,37.0,37.0,29.90,North,0,0.0,-999.0,100,0.00,,,-99.99,,2013-02-16 12:01:00,
2013-02-16 07:12:00,37.0,37.0,29.90,North,0,0.0,-999.0,100,0.00,,,0.00,,2013-02-16 12:12:00,
2013-02-16 07:21:00,37.0,37.0,29.90,North,0,0.0,-999.0,100,0.00,,,0.00,,2013-02-16 12:21:00,
2013-02-16 07:31:00,36.0,36.0,29.90,North,0,0.0,-999.0,100,0.00,,,0.00,,2013-02-16 12:31:00,
2013-02-16 07:42:00,36.0,36.0,29.90,North,0,0.0,-999.0,100,0.00,,,0.00,,2013-02-16 12:42:00,
2013-02-16 07:52:00,36.0,36.0,29.89,North,0,0.0,-999.0,100,0.00,,,0.00,,2013-02-16 12:52:00,
2013-02-16 08:01:00,36.0,36.0,29.89,North,0,0.0,-999.0,100,0.00,,,0.00,,2013-02-16 13:01:00,
2013-02-16 08:11:00,39.0,39.0,29.88,North,0,0.0,-999.0,100,0.00,,,-99.99,,2013-02-16 13:11:00,
2013-02-16 08:21:00,41.0,41.0,29.88,North,0,0.0,-999.0,100,0.00,,,-99.99,,2013-02-16 13:21:00,
2013-02-16 08:31:00,43.0,43.0,29.88,North,0,0.0,-999.0,100,0.00,,,-99.99,,2013-02-16 13:31:00,
2013-02-16 08:41:00,43.0,43.0,29.88,NNW,340,3.0,-999.0,100,0.00,,,-99.99,,2013-02-16 13:41:00,
2013-02-16 08:51:00,46.0,46.0,29.88,NNW,340,6.0,-999.0,100,0.00,,,-99.99,,2013-02-16 13:51:00,
2013-02-16 09:01:00,46.0,46.0,29.88,NNW,340,6.0,-999.0,100,0.00,,,-99.99,,2013-02-16 14:01:00,
2013-02-16 09:11:00,46.0,46.0,29.88,NNW,340,6.0,-999.0,100,0.00,,,-99.99,,2013-02-16 14:11:00,
2013-02-16 09:21:00,46.0,46.0,29.88,NNW,340,7.0,-999.0,100,0.00,,,-99.99,,2013-02-16 14:21:00,
2013-02-16 09:32:00,46.0,46.0,29.88,North,350,7.0,-999.0,100,0.00,,,-99.99,,2013-02-16 14:32:00,
2013-02-16 09:41:00,46.0,46.0,29.88,NNW,330,6.0,-999.0,100,0.00,,,-99.99,,2013-02-16 14:41:00,
2013-02-16 09:51:00,46.0,46.0,29.88,NNW,330,9.0,-999.0,100,0.00,,,-99.99,,2013-02-16 14:51:00,
2013-02-16 10:01:00,46.0,46.0,29.88,NNW,330,9.0,-999.0,100,0.00,,,-99.99,,2013-02-16 15:01:00,
2013-02-16 10:11:00,46.0,45.0,29.88,North,10,9.0,-999.0,93,0.00,,,-99.99,,2013-02-16 15:11:00,
2013-02-16 10:21:00,48.0,45.0,29.88,North,10,7.0,-999.0,87,0.00,,,-99.99,,2013-02-16 15:21:00,
2013-02-16 10:31:00,48.0,45.0,29.88,North,360,5.0,-999.0,87,0.00,,,-99.99,,2013-02-16 15:31:00,
2013-02-16 10:41:00,48.0,45.0,29.88,North,10,7.0,-999.0,87,0.00,,,-99.99,,2013-02-16 15:41:00,
2013-02-16 10:51:00,52.0,45.0,29.87,North,360,6.0,-999.0,76,0.00,,,-99.99,,2013-02-16 15:51:00,
2013-02-16 11:01:00,52.0,45.0,29.87,North,360,6.0,-999.0,76,0.00,,,-99.99,,2013-02-16 16:01:00,
2013-02-16 11:11:00,52.0,43.0,29.86,North,360,3.0,-999.0,71,0.00,,,-99.99,,2013-02-16 16:11:00,
2013-02-16 11:21:00,54.0,43.0,29.86,NNE,20,7.0,-999.0,66,0.00,,,-99.99,,2013-02-16 16:21:00,
2013-02-16 11:31:00,54.0,43.0,29.85,NNW,330,3.0,-999.0,66,0.00,,,-99.99,,2013-02-16 16:31:00,
2013-02-16 11:42:00,54.0,43.0,29.85,North,360,6.0,-999.0,66,-99.99,,,-99.99,,2013-02-16 16:42:00,
2013-02-16 11:52:00,54.0,43.0,29.85,North,10,7.0,-999.0,66,-99.99,,,-99.99,,2013-02-16 16:52:00,
2013-02-16 12:01:00,54.0,43.0,29.85,North,10,7.0,-999.0,66,-99.99,,,-99.99,,2013-02-16 17:01:00,
2013-02-16 12:11:00,54.0,43.0,29.84,NNE,20,8.0,-999.0,66,-99.99,,,-99.99,,2013-02-16 17:11:00,
2013-02-16 12:22:00,54.0,43.0,29.84,NW,320,12.0,16.0,66,-99.99,,,-99.99,,2013-02-16 17:22:00,
2013-02-16 12:32:00,54.0,43.0,29.84,NW,310,13.0,17.0,66,-99.99,,,-99.99,,2013-02-16 17:32:00,
2013-02-16 12:42:00,54.0,43.0,29.83,NW,320,12.0,17.0,66,-99.99,,,-99.99,,2013-02-16 17:42:00,
2013-02-16 12:52:00,52.0,41.0,29.84,NW,320,12.0,-999.0,66,-99.99,,,-99.99,,2013-02-16 17:52:00,
2013-02-16 13:02:00,52.0,41.0,29.84,NW,320,12.0,-999.0,66,-99.99,,,-99.99,,2013-02-16 18:02:00,
2013-02-16 13:11:00,52.0,39.0,29.83,NW,310,12.0,17.0,61,-99.99,,,-99.99,,2013-02-16 18:11:00,
2013-02-16 13:21:00,52.0,39.0,29.83,NNW,330,15.0,20.0,61,-99.99,,,-99.99,,2013-02-16 18:21:00,
2013-02-16 13:32:00,52.0,39.0,29.83,NNW,340,13.0,18.0,61,0.00,,,-99.99,,2013-02-16 18:32:00,
2013-02-16 13:41:00,50.0,39.0,29.82,NNW,330,14.0,22.0,66,0.00,,,-99.99,,2013-02-16 18:41:00,
2013-02-16 13:51:00,46.0,39.0,29.83,NW,320,16.0,23.0,75,0.00,,,-99.99,,2013-02-16 18:51:00,
2013-02-16 14:01:00,46.0,39.0,29.83,NW,320,16.0,23.0,75,0.00,,,-99.99,,2013-02-16 19:01:00,
2013-02-16 14:11:00,45.0,41.0,29.84,NW,320,18.0,24.0,87,0.00,,,-99.99,,2013-02-16 19:11:00,
2013-02-16 14:21:00,43.0,39.0,29.86,NW,320,18.0,31.0,86,0.00,,,-99.99,,2013-02-16 19:21:00,
2013-02-16 14:31:00,39.0,39.0,29.85,NNW,340,17.0,28.0,100,0.00,,,-99.99,,2013-02-16 19:31:00,
2013-02-16 14:42:00,39.0,39.0,29.86,NNW,340,15.0,25.0,100,0.00,,,-99.99,,2013-02-16 19:42:00,
2013-02-16 14:52:00,39.0,39.0,29.86,North,350,16.0,27.0,100,0.00,,,-99.99,,2013-02-16 19:52:00,
2013-02-16 15:01:00,39.0,39.0,29.86,North,350,16.0,27.0,100,0.00,,,-99.99,,2013-02-16 20:01:00,
2013-02-16 15:11:00,37.0,37.0,29.87,NNW,330,12.0,17.0,100,0.00,,,-99.99,,2013-02-16 20:11:00,
2013-02-16 15:21:00,37.0,37.0,29.87,NNW,330,14.0,24.0,100,0.00,,,-99.99,,2013-02-16 20:21:00,
2013-02-16 15:31:00,37.0,37.0,29.87,NW,320,13.0,20.0,100,0.00,,,-99.99,,2013-02-16 20:31:00,
2013-02-16 15:42:00,37.0,37.0,29.87,NNW,330,14.0,18.0,100,0.00,,,-99.99,,2013-02-16 20:42:00,
2013-02-16 15:52:00,37.0,37.0,29.88,NW,320,12.0,24.0,100,0.00,,,-99.99,,2013-02-16 20:52:00,
2013-02-16 16:01:00,37.0,37.0,29.88,NW,320,12.0,24.0,100,0.00,,,-99.99,,2013-02-16 21:01:00,
2013-02-16 16:11:00,37.0,37.0,29.88,NW,320,14.0,18.0,100,0.00,,,-99.99,,2013-02-16 21:11:00,
2013-02-16 16:21:00,37.0,37.0,29.87,NNW,330,9.0,18.0,100,0.00,,,-99.99,,2013-02-16 21:21:00,
2013-02-16 16:31:00,37.0,37.0,29.87,NNW,330,6.0,-999.0,100,0.00,,,-99.99,,2013-02-16 21:31:00,
2013-02-16 16:41:00,37.0,37.0,29.86,NNW,330,3.0,-999.0,100,0.00,,,-99.99,,2013-02-16 21:41:00,
2013-02-16 16:51:00,37.0,37.0,29.83,East,90,3.0,-999.0,100,0.00,,,-99.99,,2013-02-16 21:51:00,
2013-02-16 17:01:00,37.0,37.0,29.83,East,90,3.0,-999.0,100,0.00,,,-99.99,,2013-02-16 22:01:00,
2013-02-16 17:11:00,37.0,37.0,29.84,NNW,340,3.0,-999.0,100,0.00,,,-99.99,,2013-02-16 22:11:00,
2013-02-16 17:21:00,37.0,37.0,29.85,NW,310,7.0,-999.0,100,0.00,,,-99.99,,2013-02-16 22:21:00,
2013-02-16 17:31:00,39.0,39.0,29.86,WNW,300,7.0,-999.0,100,0.00,,,-99.99,,2013-02-16 22:31:00,
2013-02-16 17:42:00,39.0,39.0,29.86,NW,320,10.0,-999.0,100,0.00,,,-99.99,,2013-02-16 22:42:00,
2013-02-16 17:51:00,37.0,37.0,29.87,NW,320,9.0,-999.0,100,0.00,,,-99.99,,2013-02-16 22:51:00,
2013-02-16 18:02:00,37.0,37.0,29.87,NW,320,9.0,-999.0,100,0.00,,,-99.99,,2013-02-16 23:02:00,
2013-02-16 18:11:00,37.0,37.0,29.88,NW,310,10.0,-999.0,100,0.00,,,-99.99,,2013-02-16 23:11:00,
2013-02-16 18:21:00,37.0,37.0,29.88,NW,310,13.0,18.0,100,0.00,,,-99.99,,2013-02-16 23:21:00,
2013-02-16 18:31:00,39.0,39.0,29.89,NW,310,8.0,18.0,100,0.00,,,-99.99,,2013-02-16 23:31:00,
2013-02-16 18:41:00,39.0,39.0,29.89,NW,310,7.0,18.0,100,0.00,,,-99.99,,2013-02-16 23:41:00,
2013-02-16 18:52:00,39.0,39.0,29.89,NW,310,5.0,-999.0,100,0.00,,,-99.99,,2013-02-16 23:52:00,
2013-02-16 19:01:00,39.0,39.0,29.89,NW,310,5.0,-999.0,100,0.00,,,-99.99,,2013-02-17 00:01:00,
2013-02-16 19:11:00,37.0,37.0,29.89,West,280,5.0,-999.0,100,0.00,,,-99.99,,2013-02-17 00:11:00,
2013-02-16 19:21:00,37.0,37.0,29.89,WNW,290,5.0,-999.0,100,0.00,,,-99.99,,2013-02-17 00:21:00,
2013-02-16 19:31:00,37.0,37.0,29.89,West,270,3.0,-999.0,100,0.00,,,-99.99,,2013-02-17 00:31:00,
2013-02-16 19:41:00,37.0,37.0,29.90,West,260,5.0,-999.0,100,0.00,,,-99.99,,2013-02-17 00:41:00,
2013-02-16 19:51:00,37.0,37.0,29.90,West,270,5.0,-999.0,100,0.00,,,-99.99,,2013-02-17 00:51:00,
2013-02-16 20:01:00,37.0,37.0,29.90,West,270,5.0,-999.0,100,0.00,,,-99.99,,2013-02-17 01:01:00,
2013-02-16 20:11:00,37.0,37.0,29.91,West,270,6.0,-999.0,100,0.00,,,-99.99,,2013-02-17 01:11:00,
2013-02-16 20:21:00,37.0,37.0,29.91,West,270,16.0,25.0,100,0.00,,,-99.99,,2013-02-17 01:21:00,
2013-02-16 20:31:00,37.0,37.0,29.91,West,260,14.0,23.0,100,0.00,,,-99.99,,2013-02-17 01:31:00,
2013-02-16 20:41:00,37.0,37.0,29.91,West,260,13.0,22.0,100,0.00,,,-99.99,,2013-02-17 01:41:00,
2013-02-16 20:52:00,37.0,37.0,29.93,NW,310,14.0,28.0,100,0.00,,,-99.99,,2013-02-17 01:52:00,
2013-02-16 21:01:00,37.0,37.0,29.93,NW,310,14.0,28.0,100,0.00,,,-99.99,,2013-02-17 02:01:00,
2013-02-16 21:11:00,36.0,36.0,29.93,West,280,8.0,22.0,100,0.00,,,-99.99,,2013-02-17 02:11:00,
2013-02-16 21:21:00,36.0,36.0,29.94,West,280,10.0,22.0,100,0.00,,,-99.99,,2013-02-17 02:21:00,
2013-02-16 21:31:00,36.0,36.0,29.93,WNW,290,15.0,23.0,100,0.00,,,-99.99,,2013-02-17 02:31:00,
2013-02-16 21:41:00,36.0,36.0,29.93,WNW,290,16.0,23.0,100,0.00,,,-99.99,,2013-02-17 02:41:00,
2013-02-16 21:51:00,36.0,36.0,29.94,WNW,290,21.0,28.0,100,0.00,,,-99.99,,2013-02-17 02:51:00,
2013-02-16 22:01:00,36.0,36.0,29.94,WNW,290,21.0,28.0,100,0.00,,,-99.99,,2013-02-17 03:01:00,
2013-02-16 22:11:00,36.0,36.0,29.95,WNW,300,20.0,31.0,100,0.00,,,-99.99,,2013-02-17 03:11:00,
2013-02-16 22:21:00,36.0,36.0,29.96,NW,310,23.0,37.0,100,0.00,,,-99.99,,2013-02-17 03:21:00,
2013-02-16 22:31:00,36.0,36.0,29.97,NW,320,21.0,31.0,100,0.00,,,-99.99,,2013-02-17 03:31:00,
2013-02-16 22:41:00,34.0,34.0,29.98,NNW,330,20.0,31.0,100,0.00,,,-99.99,,2013-02-17 03:41:00,
2013-02-16 22:51:00,34.0,34.0,29.99,NNW,330,18.0,25.0,100,0.00,,,-99.99,,2013-02-17 03:51:00,
2013-02-16 23:01:00,34.0,34.0,29.99,NNW,330,18.0,25.0,100,0.00,,,-99.99,,2013-02-17 04:01:00,
2013-02-16 23:11:00,34.0,34.0,29.99,NNW,330,14.0,24.0,100,0.00,,,-99.99,,2013-02-17 04:11:00,
2013-02-16 23:21:00,34.0,34.0,30.00,NNW,330,14.0,24.0,100,0.00,,,-99.99,,2013-02-17 04:21:00,
2013-02-16 23:31:00,34.0,34.0,30.01,NW,320,13.0,22.0,100,0.00,,,-99.99,,2013-02-17 04:31:00,
2013-02-16 23:41:00,34.0,34.0,30.01,NW,320,13.0,18.0,100,0.00,,,-99.99,,2013-02-17 04:41:00,
2013-02-16 23:51:00,34.0,34.0,30.01,NW,320,12.0,18.0,100,0.00,,,-99.99,,2013-02-17 04:51:00,